Time;durP1;ratioP1;P1;durP2;ratioP2;P2;SDS_P1;SDS_P2;PMS_P1;PMS_P2;Temp;Humidity;BMP_temperature;BMP_pressure;BME280_temperature;BME280_humidity;BME280_pressure;Samples;Min_cycle;Max_cycle;Signal;HPM_P1;HPM_P2
2023/10/02 00:00:41;;;;;;;24.70;12.10;;;;;;;;;;4896386;29;20427;-83
2023/10/02 00:03:09;;;;;;;23.35;11.82;;;;;;;;;;4898031;29;20052;-81
2023/10/02 00:05:50;;;;;;;26.73;12.48;;;;;;;;;;4889666;29;20041;-81
2023/10/02 00:08:39;;;;;;;30.65;12.68;;;;;;;;;;4880049;29;20040;-81
2023/10/02 00:11:36;;;;;;;26.63;13.60;;;;;;;;;;4893896;29;20060;-81
2023/10/02 00:14:19;;;;;;;25.90;12.50;;;;;;;;;;4866151;29;20033;-81
2023/10/02 00:16:59;;;;;;;22.13;11.90;;;;;;;;;;4893528;29;20089;-82
2023/10/02 00:19:28;;;;;;;24.48;11.70;;;;;;;;;;4877596;29;20048;-82
2023/10/02 00:21:57;;;;;;;24.35;11.65;;;;;;;;;;4893041;29;20043;-81
2023/10/02 00:24:24;;;;;;;26.50;12.90;;;;;;;;;;4898278;29;20118;-80
2023/10/02 00:26:51;;;;;;;23.73;11.95;;;;;;;;;;4895423;29;20123;-81
2023/10/02 00:29:17;;;;;;;26.95;12.18;;;;;;;;;;4896650;29;20483;-81
2023/10/02 00:31:46;;;;;;;29.48;12.65;;;;;;;;;;4894160;29;20036;-82
2023/10/02 00:34:13;;;;;;;23.92;12.80;;;;;;;;;;4897914;29;20032;-81
2023/10/02 00:36:40;;;;;;;22.58;11.52;;;;;;;;;;4895391;29;20045;-81
2023/10/02 00:39:24;;;;;;;24.23;12.15;;;;;;;;;;4879483;29;20049;-82
2023/10/02 00:47:43;;;;;;;26.98;12.25;;;;;;;;;;4893814;29;20076;-81
2023/10/02 00:50:16;;;;;;;21.85;11.10;;;;;;;;;;4886749;29;20100;-81
2023/10/02 00:52:43;;;;;;;23.75;12.55;;;;;;;;;;4894887;29;20085;-82
2023/10/02 00:55:11;;;;;;;26.55;12.90;;;;;;;;;;4879542;29;20028;-83
2023/10/02 00:57:38;;;;;;;26.45;11.95;;;;;;;;;;4895307;29;20052;-82
2023/10/02 01:00:17;;;;;;;26.95;13.75;;;;;;;;;;4897171;29;20032;-83
2023/10/02 01:02:47;;;;;;;26.73;12.90;;;;;;;;;;4890517;29;20192;-83
2023/10/02 01:05:21;;;;;;;22.67;12.13;;;;;;;;;;4871769;29;20037;-82
2023/10/02 01:07:47;;;;;;;29.42;13.68;;;;;;;;;;4890702;29;20387;-81
2023/10/02 01:10:20;;;;;;;31.38;14.70;;;;;;;;;;4896215;29;20058;-81
2023/10/02 01:13:01;;;;;;;28.65;14.15;;;;;;;;;;4874588;29;20371;-82
2023/10/02 01:15:27;;;;;;;26.27;12.98;;;;;;;;;;4881478;29;20024;-81
2023/10/02 01:17:54;;;;;;;30.58;14.57;;;;;;;;;;4894451;29;20051;-81
2023/10/02 01:20:32;;;;;;;27.45;13.65;;;;;;;;;;4895936;29;20037;-80
2023/10/02 01:23:17;;;;;;;25.67;12.68;;;;;;;;;;4894388;29;20029;-80
2023/10/02 01:25:44;;;;;;;29.67;13.95;;;;;;;;;;4861285;29;20072;-82
2023/10/02 01:28:13;;;;;;;26.27;13.45;;;;;;;;;;4893920;29;20065;-81
2023/10/02 01:30:40;;;;;;;24.88;13.82;;;;;;;;;;4895962;29;20017;-80
2023/10/02 01:33:11;;;;;;;29.83;13.98;;;;;;;;;;4894364;29;20099;-81
2023/10/02 01:35:37;;;;;;;31.48;13.52;;;;;;;;;;4894547;29;20111;-81
2023/10/02 01:38:14;;;;;;;26.63;13.85;;;;;;;;;;4895059;29;20124;-82
2023/10/02 01:40:44;;;;;;;22.98;13.20;;;;;;;;;;4883151;29;20153;-81
2023/10/02 01:43:12;;;;;;;29.13;13.60;;;;;;;;;;4877256;29;20423;-81
2023/10/02 01:45:42;;;;;;;24.40;13.45;;;;;;;;;;4886483;29;20044;-81
2023/10/02 01:48:09;;;;;;;31.70;15.70;;;;;;;;;;4891032;29;20131;-81
2023/10/02 01:50:36;;;;;;;29.70;14.15;;;;;;;;;;4861124;29;20063;-81
2023/10/02 01:53:26;;;;;;;30.55;15.98;;;;;;;;;;4879565;29;20052;-82
2023/10/02 01:55:52;;;;;;;28.67;15.23;;;;;;;;;;4891721;29;20060;-82
2023/10/02 01:58:18;;;;;;;27.52;15.02;;;;;;;;;;4883199;29;20067;-81
2023/10/02 02:00:45;;;;;;;30.08;14.75;;;;;;;;;;4895733;29;20412;-81
2023/10/02 02:03:14;;;;;;;29.65;14.63;;;;;;;;;;4892732;29;20044;-81
2023/10/02 02:05:44;;;;;;;26.13;14.05;;;;;;;;;;4876869;29;20025;-80
2023/10/02 02:08:22;;;;;;;32.97;15.80;;;;;;;;;;4895126;29;20029;-83
2023/10/02 02:10:51;;;;;;;26.02;15.00;;;;;;;;;;4893032;29;20036;-81
2023/10/02 02:13:21;;;;;;;35.17;16.30;;;;;;;;;;4876409;29;20045;-81
2023/10/02 02:15:51;;;;;;;33.05;16.15;;;;;;;;;;4895555;29;20021;-81
2023/10/02 02:18:19;;;;;;;34.10;15.48;;;;;;;;;;4894391;29;20033;-81
2023/10/02 02:21:10;;;;;;;32.38;15.40;;;;;;;;;;4895152;29;20032;-80
2023/10/02 02:23:35;;;;;;;29.45;15.30;;;;;;;;;;4895820;29;20037;-80
2023/10/02 02:26:01;;;;;;;30.33;15.15;;;;;;;;;;4895011;29;20430;-80
2023/10/02 02:28:28;;;;;;;32.58;16.48;;;;;;;;;;4894937;29;20036;-81
2023/10/02 02:30:55;;;;;;;32.53;16.45;;;;;;;;;;4894475;29;20033;-83
2023/10/02 02:33:37;;;;;;;35.35;16.42;;;;;;;;;;4893703;29;20147;-80
2023/10/02 02:36:06;;;;;;;32.53;16.30;;;;;;;;;;4890031;29;20064;-80
2023/10/02 02:38:36;;;;;;;31.10;16.50;;;;;;;;;;4895893;29;20071;-80
2023/10/02 02:41:12;;;;;;;37.92;17.80;;;;;;;;;;4870651;29;20067;-80
2023/10/02 02:43:38;;;;;;;37.38;18.23;;;;;;;;;;4894572;29;20036;-80
2023/10/02 02:46:06;;;;;;;35.13;18.25;;;;;;;;;;4890515;29;20029;-80
2023/10/02 02:48:43;;;;;;;31.58;17.20;;;;;;;;;;4894167;29;20487;-81
2023/10/02 02:51:18;;;;;;;35.50;17.05;;;;;;;;;;4878377;29;20025;-81
2023/10/02 02:53:44;;;;;;;34.20;16.70;;;;;;;;;;4894967;29;20037;-81
2023/10/02 02:56:15;;;;;;;32.63;17.08;;;;;;;;;;4898140;29;20021;-83
2023/10/02 02:58:44;;;;;;;36.33;17.05;;;;;;;;;;4900365;29;20044;-81
2023/10/02 03:01:16;;;;;;;28.63;16.15;;;;;;;;;;4896747;29;20504;-81
2023/10/02 03:03:42;;;;;;;34.75;16.90;;;;;;;;;;4892533;29;20092;-81
2023/10/02 03:06:17;;;;;;;33.97;17.33;;;;;;;;;;4895257;29;20059;-81
2023/10/02 03:08:44;;;;;;;30.35;17.45;;;;;;;;;;4899183;29;20168;-81
2023/10/02 03:11:10;;;;;;;34.28;17.25;;;;;;;;;;4898792;29;20021;-80
2023/10/02 03:13:39;;;;;;;38.95;18.20;;;;;;;;;;4895139;29;20075;-80
2023/10/02 03:16:28;;;;;;;34.85;17.33;;;;;;;;;;4892808;29;20032;-80
2023/10/02 03:18:54;;;;;;;33.25;17.05;;;;;;;;;;4891920;29;20585;-80
2023/10/02 03:21:24;;;;;;;38.10;18.25;;;;;;;;;;4898233;29;20056;-83
2023/10/02 03:24:00;;;;;;;32.67;17.20;;;;;;;;;;4896470;29;20036;-80
2023/10/02 03:29:05;;;;;;;34.38;17.25;;;;;;;;;;4897738;29;20112;-80
2023/10/02 03:31:43;;;;;;;38.17;18.52;;;;;;;;;;4896497;29;20559;-80
2023/10/02 03:34:27;;;;;;;38.65;18.23;;;;;;;;;;4894409;29;20035;-81
2023/10/02 03:37:00;;;;;;;37.22;18.50;;;;;;;;;;4896355;29;20028;-82
2023/10/02 03:42:12;;;;;;;37.35;17.20;;;;;;;;;;4893319;29;19915;-79
2023/10/02 03:44:39;;;;;;;36.03;17.00;;;;;;;;;;4897630;29;20037;-80
2023/10/02 03:47:05;;;;;;;37.45;16.35;;;;;;;;;;4895480;29;20485;-79
2023/10/02 03:49:33;;;;;;;33.72;18.00;;;;;;;;;;4876700;29;20538;-81
2023/10/02 03:52:00;;;;;;;31.58;17.33;;;;;;;;;;4883679;29;20029;-80
2023/10/02 03:54:29;;;;;;;30.23;16.55;;;;;;;;;;4897504;29;20482;-80
2023/10/02 03:56:55;;;;;;;34.78;17.52;;;;;;;;;;4891797;29;20486;-80
2023/10/02 03:59:25;;;;;;;29.65;16.67;;;;;;;;;;4896216;29;20045;-79
2023/10/02 04:01:51;;;;;;;37.08;18.13;;;;;;;;;;4880579;29;20029;-80
2023/10/02 04:04:21;;;;;;;33.88;16.80;;;;;;;;;;4894276;29;20032;-82
2023/10/02 04:06:48;;;;;;;36.22;18.77;;;;;;;;;;4897368;29;20024;-80
2023/10/02 04:11:44;;;;;;;31.30;16.02;;;;;;;;;;4898472;29;20043;-80
2023/10/02 04:14:17;;;;;;;35.95;17.02;;;;;;;;;;4891852;29;20032;-79
2023/10/02 04:16:52;;;;;;;33.92;18.10;;;;;;;;;;4894679;29;20402;-79
2023/10/02 04:19:24;;;;;;;29.30;15.98;;;;;;;;;;4879428;29;20040;-82
2023/10/02 04:21:56;;;;;;;35.05;17.27;;;;;;;;;;4868427;29;20414;-82
2023/10/02 04:24:26;;;;;;;30.48;15.60;;;;;;;;;;4892019;29;20032;-81
2023/10/02 04:27:08;;;;;;;33.50;16.85;;;;;;;;;;4892947;29;20266;-85
2023/10/02 04:29:37;;;;;;;;;;;16.90;99.90;;;;;;4890570;29;20036;-77
2023/10/02 04:32:19;;;;;;;31.38;16.88;;;;;;;;;;4887228;29;19938;-78
2023/10/02 04:34:56;;;;;;;32.13;16.45;;;;;;;;;;4888313;29;20037;-79
2023/10/02 04:37:22;;;;;;;32.50;17.25;;;;;;;;;;4896402;29;20037;-77
2023/10/02 04:42:25;;;;;;;33.40;15.93;;;;;;;;;;4889232;29;20559;-82
2023/10/02 04:44:58;;;;;;;35.90;17.75;;;;;;;;;;4893331;29;20040;-83
2023/10/02 04:47:26;;;;;;;39.08;17.48;;;;;;;;;;4871050;29;20369;-82
2023/10/02 04:55:24;;;;;;;28.38;16.73;;;;;;;;;;4902985;29;20040;-81
2023/10/02 04:57:54;;;;;;;40.10;19.98;;;;;;;;;;4891845;29;20150;-82
2023/10/02 05:00:32;;;;;;;34.40;17.52;;;;;;;;;;4895057;29;20051;-82
2023/10/02 05:05:47;;;;;;;33.15;17.60;;;;;;;;;;4878657;29;20188;-82
2023/10/02 05:08:21;;;;;;;31.70;17.15;;;;;;;;;;4878267;29;20043;-83
2023/10/02 05:10:56;;;;;;;35.42;17.85;;;;;;;;;;4878423;29;20025;-77
2023/10/02 05:16:11;;;;;;;34.05;18.38;;;;;;;;;;4883706;29;20065;-81
2023/10/02 05:18:37;;;;;;;33.28;16.85;;;;;;;;;;4894862;29;20036;-83
2023/10/02 05:21:04;;;;;;;35.70;17.73;;;;;;;;;;4884049;29;20039;-82
2023/10/02 05:23:30;;;;;;;35.53;18.38;;;;;;;;;;4895950;29;20108;-81
2023/10/02 05:26:00;;;;;;;35.22;17.67;;;;;;;;;;4891257;29;20444;-81
2023/10/02 05:28:42;;;;;;;31.55;17.33;;;;;;;;;;4892614;29;20112;-82
2023/10/02 05:31:08;;;;;;;43.77;19.30;;;;;;;;;;4887107;29;20036;-82
2023/10/02 05:33:37;;;;;;;41.72;21.30;;;;;;;;;;4896526;29;20048;-83
2023/10/02 05:36:04;;;;;;;34.15;17.73;;;;;;;;;;4888649;29;20033;-84
2023/10/02 05:38:33;;;;;;;36.47;17.92;;;;;;;;;;4891763;29;20032;-77
2023/10/02 05:40:59;;;;;;;36.45;20.13;;;;;;;;;;4896248;29;20041;-77
2023/10/02 05:43:31;;;;;;;38.72;19.67;;;;;;;;;;4893141;29;20649;-78
2023/10/02 05:45:57;;;;;;;30.88;18.23;;;;;;;;;;4892500;29;20029;-77
2023/10/02 05:50:53;;;;;;;35.90;17.48;;;;;;;;;;4882732;29;20495;-77
2023/10/02 05:53:20;;;;;;;31.38;16.88;;;;;;;;;;4889646;29;20033;-77
2023/10/02 05:56:05;;;;;;;36.38;19.05;;;;;;;;;;4892652;29;20127;-77
2023/10/02 05:58:35;;;;;;;35.22;18.48;;;;;;;;;;4891380;29;20100;-77
2023/10/02 06:01:04;;;;;;;36.08;18.58;;;;;;;;;;4894009;29;20404;-77
2023/10/02 06:03:34;;;;;;;35.25;17.27;;;;;;;;;;4889636;29;20076;-77
2023/10/02 06:06:17;;;;;;;32.25;17.48;;;;;;;;;;4895403;29;20035;-79
2023/10/02 06:09:12;;;;;;;37.50;18.33;;;;;;;;;;4893773;29;20403;-76
2023/10/02 06:11:59;;;;;;;36.60;19.75;;;;;;;;;;4889612;29;20033;-85
2023/10/02 06:14:25;;;;;;;41.72;19.70;;;;;;;;;;4882556;29;20087;-84
2023/10/02 06:16:52;;;;;;;34.80;19.27;;;;;;;;;;4882794;29;20087;-88
2023/10/02 06:19:19;;;;;;;35.13;18.10;;;;;;;;;;4870093;29;20175;-82
2023/10/02 06:21:46;;;;;;;31.73;17.02;;;;;;;;;;4882134;29;20033;-83
2023/10/02 06:24:19;;;;;;;31.50;18.05;;;;;;;;;;4888925;29;20539;-81
2023/10/02 06:26:58;;;;;;;30.08;17.05;;;;;;;;;;4892602;29;20033;-83
2023/10/02 06:29:29;;;;;;;34.28;18.83;;;;;;;;;;4891228;29;20125;-83
2023/10/02 06:31:59;;;;;;;31.48;17.80;;;;;;;;;;4894051;29;20044;-85
2023/10/02 06:34:37;;;;;;;35.00;18.45;;;;;;;;;;4899384;29;20048;-80
2023/10/02 06:37:07;;;;;;;35.15;17.95;;;;;;;;;;4888480;29;20078;-84
2023/10/02 06:39:37;;;;;;;37.67;18.90;;;;;;;;;;4896984;29;20501;-80
2023/10/02 06:42:07;;;;;;;45.40;24.73;;;;;;;;;;4888611;29;20032;-80
2023/10/02 06:44:52;;;;;;;36.38;21.20;;;;;;;;;;4892597;29;20037;-80
2023/10/02 06:47:21;;;;;;;40.80;21.20;;;;;;;;;;4888846;29;20068;-79
2023/10/02 06:49:47;;;;;;;31.00;17.63;;;;;;;;;;4887373;29;20036;-83
2023/10/02 06:52:15;;;;;;;32.65;18.08;;;;;;;;;;4894615;29;20076;-82
2023/10/02 06:54:45;;;;;;;34.72;17.75;;;;;;;;;;4895260;29;20051;-82
2023/10/02 06:57:14;;;;;;;39.05;18.48;;;;;;;;;;4891664;29;20057;-81
2023/10/02 06:59:41;;;;;;;36.95;18.73;;;;;;;;;;4875411;29;20044;-81
2023/10/02 07:02:09;;;;;;;38.15;18.27;;;;;;;;;;4892826;29;20033;-85
2023/10/02 07:04:36;;;;;;;36.35;18.30;;;;;;;;;;4894021;29;20033;-84
2023/10/02 07:07:07;;;;;;;29.70;16.70;;;;;;;;;;4894725;29;20036;-81
2023/10/02 07:09:35;;;;;;;36.58;18.92;;;;;;;;;;4894614;29;20536;-82
2023/10/02 07:12:14;;;;;;;32.75;18.17;;;;;;;;;;4894290;29;20487;-80
2023/10/02 07:14:42;;;;;;;37.50;18.23;;;;;;;;;;4897279;29;20177;-81
2023/10/02 07:17:16;;;;;;;61.53;36.70;;;;;;;;;;4884737;29;20084;-80
2023/10/02 07:19:48;;;;;;;33.60;17.98;;;;;;;;;;4870077;29;20033;-81
2023/10/02 07:22:16;;;;;;;34.53;18.70;;;;;;;;;;4885645;29;20028;-81
2023/10/02 07:24:46;;;;;;;33.50;17.80;;;;;;;;;;4890937;29;20033;-81
2023/10/02 07:27:28;;;;;;;33.85;18.02;;;;;;;;;;4894811;29;20379;-79
2023/10/02 07:29:54;;;;;;;30.77;16.92;;;;;;;;;;4891175;29;20037;-80
2023/10/02 07:32:20;;;;;;;36.17;18.42;;;;;;;;;;4895184;29;20061;-79
2023/10/02 07:34:47;;;;;;;33.72;17.38;;;;;;;;;;4901192;29;20044;-79
2023/10/02 07:37:15;;;;;;;33.67;18.40;;;;;;;;;;4893923;29;20534;-82
2023/10/02 07:39:42;;;;;;;33.83;17.85;;;;;;;;;;4887246;29;20514;-84
2023/10/02 07:42:10;;;;;;;34.38;17.83;;;;;;;;;;4887215;29;20091;-84
2023/10/02 07:44:36;;;;;;;35.90;18.45;;;;;;;;;;4891874;29;20180;-83
2023/10/02 07:47:22;;;;;;;42.10;18.75;;;;;;;;;;4870769;29;20036;-83
2023/10/02 07:49:51;;;;;;;32.45;17.85;;;;;;;;;;4884033;29;20029;-84
2023/10/02 07:52:35;;;;;;;39.20;17.55;;;;;;;;;;4900559;29;20584;-83
2023/10/02 07:55:01;;;;;;;28.60;17.38;;;;;;;;;;4897102;29;20045;-84
2023/10/02 07:57:30;;;;;;;34.58;18.58;;;;;;;;;;4896401;29;20043;-77
2023/10/02 07:59:57;;;;;;;47.22;23.67;;;;;;;;;;4896079;29;20123;-78
2023/10/02 08:02:23;;;;;;;41.70;18.83;;;;;;;;;;4897792;29;20064;-79
2023/10/02 08:04:51;;;;;;;39.00;18.30;;;;;;;;;;4897224;29;20403;-79
2023/10/02 08:07:18;;;;;;;38.03;18.30;;;;;;;;;;4892962;29;20476;-84
2023/10/02 08:09:52;;;;;;;37.33;18.50;;;;;;;;;;4897794;29;20490;-84
2023/10/02 08:12:30;;;;;;;31.95;17.70;;;;;;;;;;4891438;29;20055;-83
2023/10/02 08:15:03;;;;;;;31.77;16.13;;;;;;;;;;4897614;29;20037;-83
2023/10/02 08:20:19;;;;;;;38.67;19.50;;;;;;;;;;4898174;29;20047;-83
2023/10/02 08:22:45;;;;;;;33.53;16.75;;;;;;;;;;4896019;29;20037;-84
2023/10/02 08:25:14;;;;;;;33.40;17.52;;;;;;;;;;4896095;29;20029;-83
2023/10/02 08:27:43;;;;;;;35.95;18.25;;;;;;;;;;4874687;29;20048;-83
2023/10/02 08:30:27;;;;;;;42.00;19.38;;;;;;;;;;4867349;29;20032;-85
2023/10/02 08:32:53;;;;;;;41.13;19.73;;;;;;;;;;4880582;29;20160;-84
2023/10/02 08:35:19;;;;;;;37.88;19.55;;;;;;;;;;4900958;29;20447;-83
2023/10/02 08:37:46;;;;;;;37.85;18.98;;;;;;;;;;4896028;29;20104;-84
2023/10/02 08:40:14;;;;;;;38.97;19.23;;;;;;;;;;4896468;29;20037;-84
2023/10/02 08:42:46;;;;;;;37.65;19.15;;;;;;;;;;4896004;29;20502;-83
2023/10/02 08:45:20;;;;;;;39.33;19.27;;;;;;;;;;4872941;29;20029;-84
2023/10/02 08:47:50;;;;;;;37.58;18.95;;;;;;;;;;4895434;29;20360;-86
2023/10/02 08:50:17;;;;;;;39.20;19.90;;;;;;;;;;4886440;29;20016;-84
2023/10/02 08:52:50;;;;;;;34.95;18.83;;;;;;;;;;4887887;29;20119;-84
2023/10/02 08:55:51;;;;;;;42.38;20.52;;;;;;;;;;4886689;29;20039;-84
2023/10/02 08:58:21;;;;;;;39.65;20.75;;;;;;;;;;4878947;29;20038;-84
2023/10/02 09:03:41;;;;;;;34.28;18.98;;;;;;;;;;4895734;29;20518;-86
2023/10/02 09:06:35;;;;;;;38.47;18.98;;;;;;;;;;4895402;29;20028;-84
2023/10/02 09:11:41;;;;;;;38.03;20.00;;;;;;;;;;4896070;29;20088;-84
2023/10/02 09:14:23;;;;;;;45.65;21.55;;;;;;;;;;4895112;29;20024;-85
2023/10/02 09:20:02;;;;;;;37.95;19.10;;;;;;;;;;4895599;29;20111;-84
2023/10/02 09:22:28;;;;;;;44.92;20.70;;;;;;;;;;4890820;29;20026;-83
2023/10/02 09:25:37;;;;;;;40.85;20.98;;;;;;;;;;4895761;29;20032;-84
2023/10/02 09:28:04;;;;;;;44.13;21.15;;;;;;;;;;4884857;29;20070;-80
2023/10/02 09:30:36;;;;;;;37.60;20.40;;;;;;;;;;4880985;29;20546;-81
2023/10/02 09:33:08;;;;;;;36.72;20.30;;;;;;;;;;4865346;29;20490;-79
2023/10/02 09:35:42;;;;;;;40.78;19.63;;;;;;;;;;4885213;29;20088;-79
2023/10/02 09:38:22;;;;;;;38.63;19.25;;;;;;;;;;4892150;29;20092;-82
2023/10/02 09:40:54;;;;;;;38.22;20.50;;;;;;;;;;4896538;29;20024;-80
2023/10/02 09:43:36;;;;;;;39.10;20.13;;;;;;;;;;4886892;29;20036;-85
2023/10/02 09:46:06;;;;;;;43.67;19.85;;;;;;;;;;4886863;29;20049;-85
2023/10/02 09:52:09;;;;;;;40.30;19.25;;;;;;;;;;4839817;29;20048;-85
2023/10/02 09:54:40;;;;;;;37.15;19.60;;;;;;;;;;4885937;29;20041;-84
2023/10/02 09:57:12;;;;;;;39.50;19.98;;;;;;;;;;4898009;29;20048;-94
2023/10/02 09:59:48;;;;;;;38.53;19.45;;;;;;;;;;4898927;29;20115;-87
2023/10/02 10:05:22;;;;;;;38.08;18.90;;;;;;;;;;4895374;29;20141;-87
2023/10/02 10:10:45;;;;;;;32.85;19.13;;;;;;;;;;4903628;29;20552;-94
2023/10/02 10:13:34;;;;;;;34.53;17.92;;;;;;;;;;4881809;29;20490;-91
2023/10/02 10:16:18;;;;;;;34.35;17.08;;;;;;;;;;4876707;29;20092;-87
2023/10/02 10:21:56;;;;;;;35.40;19.25;;;;;;;;;;4892189;29;20033;-82
2023/10/02 10:27:40;;;;;;;36.15;16.02;;;;;;;;;;4887054;29;20069;-84
2023/10/02 10:30:24;;;;;;;24.38;13.52;;;;;;;;;;4894896;29;20131;-84
2023/10/02 10:35:34;;;;;;;32.40;14.43;;;;;;;;;;4888680;29;20144;-83
2023/10/02 10:38:03;;;;;;;30.92;15.02;;;;;;;;;;4871510;29;20436;-84
2023/10/02 10:40:44;;;;;;;31.95;16.20;;;;;;;;;;4892134;29;20032;-82
2023/10/02 10:43:14;;;;;;;38.33;17.02;;;;;;;;;;4891083;29;20028;-82
2023/10/02 10:45:40;;;;;;;35.47;16.75;;;;;;;;;;4887545;29;20033;-83
2023/10/02 10:48:26;;;;;;;34.25;15.90;;;;;;;;;;4890990;29;20037;-84
2023/10/02 10:51:22;;;;;;;30.77;14.60;;;;;;;;;;4881884;29;20045;-83
2023/10/02 10:53:52;;;;;;;33.95;15.75;;;;;;;;;;4891231;29;20033;-84
2023/10/02 10:56:19;;;;;;;33.28;16.42;;;;;;;;;;4891375;29;20033;-84
2023/10/02 10:58:48;;;;;;;29.77;15.68;;;;;;;;;;4894577;29;20048;-84
2023/10/02 11:01:20;;;;;;;27.45;15.48;;;;;;;;;;4890512;29;20029;-84
2023/10/02 11:03:56;;;;;;;31.33;16.33;;;;;;;;;;4890285;29;20056;-84
2023/10/02 11:06:23;;;;;;;29.40;14.93;;;;;;;;;;4868224;29;20067;-84
2023/10/02 11:09:11;;;;;;;27.55;14.75;;;;;;;;;;4893268;29;20093;-84
2023/10/02 11:11:50;;;;;;;26.92;14.32;;;;;;;;;;4893829;29;20040;-84
2023/10/02 11:14:34;;;;;;;34.50;16.70;;;;;;;;;;4882754;29;20040;-84
2023/10/02 11:17:04;;;;;;;31.20;16.83;;;;;;;;;;4893636;29;20025;-83
2023/10/02 11:22:22;;;;;;;29.08;16.08;;;;;;;;;;4897910;29;20040;-80
2023/10/02 11:24:54;;;;;;;35.17;16.55;;;;;;;;;;4896190;29;20043;-79
2023/10/02 11:27:21;;;;;;;28.25;15.13;;;;;;;;;;4867951;29;20483;-82
2023/10/02 11:30:10;;;;;;;29.67;15.90;;;;;;;;;;4895500;29;20040;-83
2023/10/02 11:32:54;;;;;;;27.98;15.30;;;;;;;;;;4896034;29;20135;-82
2023/10/02 11:35:21;;;;;;;32.75;16.80;;;;;;;;;;4891887;29;20103;-82
2023/10/02 11:37:47;;;;;;;32.38;16.27;;;;;;;;;;4874466;29;20040;-84
2023/10/02 11:40:14;;;;;;;34.58;17.10;;;;;;;;;;4894898;29;20115;-82
2023/10/02 11:42:40;;;;;;;31.20;16.80;;;;;;;;;;4892027;29;20088;-82
2023/10/02 11:45:07;;;;;;;29.73;17.45;;;;;;;;;;4872942;29;20383;-81
2023/10/02 11:47:33;;;;;;;32.00;16.70;;;;;;;;;;4895441;29;20064;-82
2023/10/02 11:50:00;;;;;;;32.97;18.27;;;;;;;;;;4897473;29;20033;-81
2023/10/02 11:52:26;;;;;;;35.38;18.00;;;;;;;;;;4892936;29;20033;-82
2023/10/02 11:54:54;;;;;;;34.53;17.88;;;;;;;;;;4894601;29;20037;-82
2023/10/02 11:57:20;;;;;;;34.35;17.65;;;;;;;;;;4894540;29;20072;-81
2023/10/02 11:59:47;;;;;;;29.10;16.50;;;;;;;;;;4890215;29;20077;-83
2023/10/02 12:02:16;;;;;;;30.13;16.23;;;;;;;;;;4869297;29;20065;-81
2023/10/02 12:04:43;;;;;;;38.85;18.02;;;;;;;;;;4890909;29;20040;-83
2023/10/02 12:07:15;;;;;;;28.55;16.50;;;;;;;;;;4894690;29;20076;-82
2023/10/02 12:09:43;;;;;;;30.77;14.75;;;;;;;;;;4889552;29;20080;-83
2023/10/02 12:12:11;;;;;;;29.23;15.95;;;;;;;;;;4894140;29;20412;-83
2023/10/02 12:14:39;;;;;;;38.55;20.20;;;;;;;;;;4885147;29;20036;-83
2023/10/02 12:17:06;;;;;;;30.25;16.92;;;;;;;;;;4892082;29;20431;-83
2023/10/02 12:19:36;;;;;;;34.22;20.00;;;;;;;;;;4886342;29;20036;-79
2023/10/02 12:22:05;;;;;;;32.53;16.52;;;;;;;;;;4893811;29;20128;-76
2023/10/02 12:24:31;;;;;;;33.10;17.55;;;;;;;;;;4893776;29;20546;-77
2023/10/02 12:26:58;;;;;;;29.88;15.18;;;;;;;;;;4889474;29;20036;-87
2023/10/02 12:29:24;;;;;;;28.98;16.15;;;;;;;;;;4890038;29;20392;-85
2023/10/02 12:31:51;;;;;;;30.35;16.38;;;;;;;;;;4895447;29;20028;-85
2023/10/02 12:34:18;;;;;;;28.77;15.57;;;;;;;;;;4879189;29;20048;-87
2023/10/02 12:36:44;;;;;;;28.52;14.88;;;;;;;;;;4883980;29;20036;-85
2023/10/02 12:39:13;;;;;;;31.70;14.73;;;;;;;;;;4879658;29;20085;-85
2023/10/02 12:41:42;;;;;;;25.50;14.73;;;;;;;;;;4884453;29;20097;-84
2023/10/02 12:44:08;;;;;;;30.75;15.95;;;;;;;;;;4890698;29;20033;-87
2023/10/02 12:46:43;;;;;;;28.92;15.32;;;;;;;;;;4868979;29;20037;-84
2023/10/02 12:49:09;;;;;;;22.95;13.38;;;;;;;;;;4887477;29;20028;-85
2023/10/02 12:51:35;;;;;;;30.25;15.18;;;;;;;;;;4871991;29;20040;-83
2023/10/02 12:54:03;;;;;;;35.08;16.75;;;;;;;;;;4885528;29;20069;-85
2023/10/02 12:56:30;;;;;;;29.85;16.25;;;;;;;;;;4894242;29;20064;-85
2023/10/02 12:58:56;;;;;;;29.08;15.23;;;;;;;;;;4892219;29;20036;-85
2023/10/02 13:01:27;;;;;;;29.42;15.45;;;;;;;;;;4889982;29;20035;-86
2023/10/02 13:04:02;;;;;;;31.13;15.43;;;;;;;;;;4887257;29;20088;-86
2023/10/02 13:06:32;;;;;;;29.30;16.17;;;;;;;;;;4886248;29;20064;-73
2023/10/02 13:09:14;;;;;;;29.55;14.45;;;;;;;;;;4890321;29;20555;-70
2023/10/02 13:11:40;;;;;;;41.00;16.55;;;;;;;;;;4891538;29;20020;-71
2023/10/02 13:14:12;;;;;;;40.72;19.85;;;;;;;;;;4884593;29;20029;-72
2023/10/02 13:16:41;;;;;;;28.65;16.83;;;;;;;;;;4877707;29;20040;-74
2023/10/02 13:19:09;;;;;;;41.60;22.38;;;;;;;;;;4892274;29;20033;-74
2023/10/02 13:21:37;;;;;;;30.60;15.40;;;;;;;;;;4895780;29;20091;-72
2023/10/02 13:24:03;;;;;;;29.10;15.70;;;;;;;;;;4891004;29;20028;-73
2023/10/02 13:26:29;;;;;;;33.47;16.10;;;;;;;;;;4891684;29;20040;-71
2023/10/02 13:28:56;;;;;;;30.85;15.30;;;;;;;;;;4877480;29;20040;-72
2023/10/02 13:31:23;;;;;;;38.70;15.43;;;;;;;;;;4887292;29;20380;-77
2023/10/02 13:33:52;;;;;;;71.78;17.95;;;;;;;;;;4890517;29;20025;-72
2023/10/02 13:36:23;;;;;;;34.15;15.13;;;;;;;;;;4891571;29;20044;-70
2023/10/02 13:38:58;;;;;;;32.22;16.10;;;;;;;;;;4894604;29;20072;-72
2023/10/02 13:41:25;;;;;;;38.88;17.17;;;;;;;;;;4888673;29;20040;-73
2023/10/02 13:43:53;;;;;;;37.65;20.35;;;;;;;;;;4870567;29;20089;-78
2023/10/02 13:46:22;;;;;;;29.35;14.85;;;;;;;;;;4891173;29;20071;-74
2023/10/02 16:22:18;;;;;;;26.58;14.07;;;;;;;;;;5074298;23;20083;-74
2023/10/02 16:24:45;;;;;;;25.33;14.20;;;;;;;;;;4881158;29;20515;-74
2023/10/02 16:27:11;;;;;;;29.80;14.05;;;;;;;;;;4879962;29;20393;-74
2023/10/02 16:29:37;;;;;;;21.10;11.95;;;;;;;;;;4866494;29;20033;-75
2023/10/02 16:32:04;;;;;;;33.20;14.70;;;;;;;;;;4889028;29;20024;-74
2023/10/02 16:34:31;;;;;;;26.25;12.65;;;;;;;;;;4881164;29;20036;-75
2023/10/02 16:36:57;;;;;;;23.52;11.48;;;;;;;;;;4891706;29;20075;-78
2023/10/02 16:39:23;;;;;;;26.30;11.80;;;;;;;;;;4878964;29;20037;-75
2023/10/02 16:41:50;;;;;;;26.27;11.68;;;;;;;;;;4884824;29;20486;-76
2023/10/02 16:44:16;;;;;;;25.23;13.55;;;;;;;;;;4889181;29;20037;-71
2023/10/02 16:46:44;;;;;;;26.88;13.40;;;;;;;;;;4887054;29;20072;-71
2023/10/02 16:49:10;;;;;;;20.83;12.13;;;;;;;;;;4882474;29;20028;-73
2023/10/02 16:51:36;;;;;;;25.05;12.20;;;;;;;;;;4878420;29;20041;-80
2023/10/02 16:54:02;;;;;;;23.73;11.60;;;;;;;;;;4883880;29;20033;-79
2023/10/02 16:56:28;;;;;;;24.25;11.20;;;;;;;;;;4895157;29;20069;-79
2023/10/02 16:58:58;;;;;;;21.65;11.02;;;;;;;;;;4897905;29;20057;-78
2023/10/02 17:01:24;;;;;;;22.27;11.15;;;;;;;;;;4882665;29;20047;-81
2023/10/02 17:03:51;;;;;;;22.65;10.88;;;;;;;;;;4884736;29;20116;-79
2023/10/02 17:06:17;;;;;;;22.08;11.52;;;;;;;;;;4879614;29;20029;-81
2023/10/02 17:08:43;;;;;;;20.98;10.90;;;;;;;;;;4887326;29;20128;-80
2023/10/02 17:11:12;;;;;;;22.48;10.30;;;;;;;;;;4879512;29;20112;-80
2023/10/02 17:13:40;;;;;;;18.13;9.23;;;;;;;;;;4879467;29;20048;-80
2023/10/02 17:16:07;;;;;;;25.45;11.05;;;;;;;;;;4884504;29;20116;-80
2023/10/02 17:18:33;;;;;;;18.10;9.60;;;;;;;;;;4884093;29;20112;-80
2023/10/02 17:21:00;;;;;;;23.77;11.45;;;;;;;;;;4884144;29;20128;-79
2023/10/02 17:23:28;;;;;;;18.92;10.02;;;;;;;;;;4879587;29;20029;-78
2023/10/02 17:25:57;;;;;;;22.40;11.18;;;;;;;;;;4889766;29;20028;-77
2023/10/02 17:28:28;;;;;;;24.38;12.68;;;;;;;;;;4890849;29;20072;-78
2023/10/02 17:30:54;;;;;;;20.90;10.57;;;;;;;;;;4884725;29;20021;-77
2023/10/02 17:33:20;;;;;;;18.67;10.80;;;;;;;;;;4875899;29;20029;-83
2023/10/02 17:35:46;;;;;;;19.25;11.10;;;;;;;;;;4883701;29;20399;-83
2023/10/02 17:38:15;;;;;;;24.73;10.85;;;;;;;;;;4899378;29;20167;-82
2023/10/02 17:40:41;;;;;;;22.98;12.32;;;;;;;;;;4880541;29;20126;-83
2023/10/02 17:43:07;;;;;;;19.60;9.70;;;;;;;;;;4893247;29;20079;-82
2023/10/02 17:45:33;;;;;;;18.77;10.95;;;;;;;;;;4895464;29;20016;-82
2023/10/02 17:48:01;;;;;;;25.70;11.15;;;;;;;;;;4880640;29;20037;-83
2023/10/02 17:50:27;;;;;;;19.17;10.15;;;;;;;;;;4877523;29;20032;-83
2023/10/02 17:52:53;;;;;;;22.75;11.95;;;;;;;;;;4877146;29;20037;-82
2023/10/02 17:55:19;;;;;;;32.80;14.82;;;;;;;;;;4879500;29;20496;-82
2023/10/02 17:57:47;;;;;;;29.30;15.25;;;;;;;;;;4883855;29;20056;-85
2023/10/02 18:00:14;;;;;;;24.85;13.90;;;;;;;;;;4864335;29;20055;-82
2023/10/02 18:02:44;;;;;;;29.63;15.80;;;;;;;;;;4894265;29;20029;-84
2023/10/02 18:05:13;;;;;;;28.45;15.38;;;;;;;;;;4894149;29;20423;-83
2023/10/02 18:07:42;;;;;;;33.65;17.02;;;;;;;;;;4893311;29;20032;-83
2023/10/02 18:10:08;;;;;;;34.13;17.23;;;;;;;;;;4890305;29;20455;-84
2023/10/02 18:12:35;;;;;;;32.58;16.45;;;;;;;;;;4890858;29;20531;-84